sensor_id;sensor_type;location;lat;lon;timestamp;temperature;humidity
41481;DHT22;27217;51.220;5.308;2022-10-22T00:01:48;14.50;99.90
41481;DHT22;27217;51.220;5.308;2022-10-22T00:04:14;14.50;99.90
41481;DHT22;27217;51.220;5.308;2022-10-22T00:06:40;14.70;99.90
41481;DHT22;27217;51.220;5.308;2022-10-22T00:09:10;14.70;99.90
41481;DHT22;27217;51.220;5.308;2022-10-22T00:11:37;14.60;99.90
41481;DHT22;27217;51.220;5.308;2022-10-22T00:14:03;14.50;99.90
41481;DHT22;27217;51.220;5.308;2022-10-22T00:16:28;14.40;99.90
41481;DHT22;27217;51.220;5.308;2022-10-22T00:18:54;14.40;99.90
41481;DHT22;27217;51.220;5.308;2022-10-22T00:21:21;14.50;99.90
41481;DHT22;27217;51.220;5.308;2022-10-22T00:23:46;14.60;99.90
41481;DHT22;27217;51.220;5.308;2022-10-22T00:26:17;14.70;99.90
41481;DHT22;27217;51.220;5.308;2022-10-22T00:28:43;14.60;99.90
41481;DHT22;27217;51.220;5.308;2022-10-22T00:31:10;14.60;99.90
41481;DHT22;27217;51.220;5.308;2022-10-22T00:33:36;14.60;99.90
41481;DHT22;27217;51.220;5.308;2022-10-22T00:36:02;14.70;99.90
41481;DHT22;27217;51.220;5.308;2022-10-22T00:38:28;14.60;99.90
41481;DHT22;27217;51.220;5.308;2022-10-22T00:40:54;14.70;99.90
41481;DHT22;27217;51.220;5.308;2022-10-22T00:43:20;14.70;99.90
41481;DHT22;27217;51.220;5.308;2022-10-22T00:45:46;14.70;99.90
41481;DHT22;27217;51.220;5.308;2022-10-22T00:48:19;14.60;99.90
41481;DHT22;27217;51.220;5.308;2022-10-22T00:50:51;14.50;99.90
41481;DHT22;27217;51.220;5.308;2022-10-22T00:53:48;14.70;99.90
41481;DHT22;27217;51.220;5.308;2022-10-22T00:56:14;14.80;99.90
41481;DHT22;27217;51.220;5.308;2022-10-22T00:58:47;14.70;99.90
41481;DHT22;27217;51.220;5.308;2022-10-22T01:01:17;14.80;99.90
41481;DHT22;27217;51.220;5.308;2022-10-22T01:03:48;14.70;99.90
41481;DHT22;27217;51.220;5.308;2022-10-22T01:06:23;14.70;99.90
41481;DHT22;27217;51.220;5.308;2022-10-22T01:12:13;14.80;99.90
41481;DHT22;27217;51.220;5.308;2022-10-22T01:23:30;14.70;99.90
41481;DHT22;27217;51.220;5.308;2022-10-22T01:26:32;14.70;99.90
41481;DHT22;27217;51.220;5.308;2022-10-22T01:29:08;14.50;99.90
41481;DHT22;27217;51.220;5.308;2022-10-22T01:31:40;14.50;99.90
41481;DHT22;27217;51.220;5.308;2022-10-22T01:34:11;14.60;99.90
41481;DHT22;27217;51.220;5.308;2022-10-22T01:36:42;14.60;99.90
41481;DHT22;27217;51.220;5.308;2022-10-22T01:39:10;14.50;99.90
41481;DHT22;27217;51.220;5.308;2022-10-22T01:41:38;14.50;99.90
41481;DHT22;27217;51.220;5.308;2022-10-22T01:44:04;14.30;99.90
41481;DHT22;27217;51.220;5.308;2022-10-22T01:46:33;14.50;99.90
41481;DHT22;27217;51.220;5.308;2022-10-22T01:49:24;14.40;99.90
41481;DHT22;27217;51.220;5.308;2022-10-22T01:57:41;14.30;99.90
41481;DHT22;27217;51.220;5.308;2022-10-22T02:00:13;14.40;99.90
41481;DHT22;27217;51.220;5.308;2022-10-22T02:02:55;14.40;99.90
41481;DHT22;27217;51.220;5.308;2022-10-22T02:05:46;14.40;99.90
41481;DHT22;27217;51.220;5.308;2022-10-22T02:08:17;14.30;99.90
41481;DHT22;27217;51.220;5.308;2022-10-22T02:10:46;14.20;99.90
41481;DHT22;27217;51.220;5.308;2022-10-22T02:13:20;14.40;99.90
41481;DHT22;27217;51.220;5.308;2022-10-22T02:15:50;14.40;99.90
41481;DHT22;27217;51.220;5.308;2022-10-22T02:18:17;14.30;99.90
41481;DHT22;27217;51.220;5.308;2022-10-22T02:20:44;14.40;99.90
41481;DHT22;27217;51.220;5.308;2022-10-22T02:23:11;14.60;99.90
41481;DHT22;27217;51.220;5.308;2022-10-22T02:25:41;14.30;99.90
41481;DHT22;27217;51.220;5.308;2022-10-22T02:28:16;14.40;99.90
41481;DHT22;27217;51.220;5.308;2022-10-22T02:30:47;14.40;99.90
41481;DHT22;27217;51.220;5.308;2022-10-22T02:33:18;14.40;99.90
41481;DHT22;27217;51.220;5.308;2022-10-22T02:35:47;14.20;99.90
41481;DHT22;27217;51.220;5.308;2022-10-22T02:38:14;14.20;99.90
41481;DHT22;27217;51.220;5.308;2022-10-22T02:40:41;14.20;99.90
41481;DHT22;27217;51.220;5.308;2022-10-22T02:43:07;14.30;99.90
41481;DHT22;27217;51.220;5.308;2022-10-22T02:45:33;14.40;99.90
41481;DHT22;27217;51.220;5.308;2022-10-22T02:47:59;14.30;99.90
41481;DHT22;27217;51.220;5.308;2022-10-22T02:50:25;14.10;99.90
41481;DHT22;27217;51.220;5.308;2022-10-22T02:52:51;13.90;99.90
41481;DHT22;27217;51.220;5.308;2022-10-22T02:55:17;13.90;99.90
41481;DHT22;27217;51.220;5.308;2022-10-22T02:57:43;13.90;99.90
41481;DHT22;27217;51.220;5.308;2022-10-22T03:00:10;13.90;99.90
41481;DHT22;27217;51.220;5.308;2022-10-22T03:02:36;13.80;99.90
41481;DHT22;27217;51.220;5.308;2022-10-22T03:05:03;14.00;99.90
41481;DHT22;27217;51.220;5.308;2022-10-22T03:07:29;14.00;99.90
41481;DHT22;27217;51.220;5.308;2022-10-22T03:09:55;14.20;99.90
41481;DHT22;27217;51.220;5.308;2022-10-22T03:12:21;14.20;99.90
41481;DHT22;27217;51.220;5.308;2022-10-22T03:14:46;14.10;99.90
41481;DHT22;27217;51.220;5.308;2022-10-22T03:17:12;14.10;99.90
41481;DHT22;27217;51.220;5.308;2022-10-22T03:19:38;14.00;99.90
41481;DHT22;27217;51.220;5.308;2022-10-22T03:22:09;14.00;99.90
41481;DHT22;27217;51.220;5.308;2022-10-22T03:24:37;13.90;99.90
41481;DHT22;27217;51.220;5.308;2022-10-22T03:27:04;14.00;99.90
41481;DHT22;27217;51.220;5.308;2022-10-22T03:29:32;14.10;99.90
41481;DHT22;27217;51.220;5.308;2022-10-22T03:32:00;13.90;99.90
41481;DHT22;27217;51.220;5.308;2022-10-22T03:34:26;13.90;99.90
41481;DHT22;27217;51.220;5.308;2022-10-22T03:36:52;14.00;99.90
41481;DHT22;27217;51.220;5.308;2022-10-22T03:39:20;13.90;99.90
41481;DHT22;27217;51.220;5.308;2022-10-22T03:41:48;13.90;99.90
41481;DHT22;27217;51.220;5.308;2022-10-22T03:44:16;14.00;99.90
41481;DHT22;27217;51.220;5.308;2022-10-22T03:46:43;14.10;99.90
41481;DHT22;27217;51.220;5.308;2022-10-22T03:49:08;14.10;99.90
41481;DHT22;27217;51.220;5.308;2022-10-22T03:51:34;14.00;99.90
41481;DHT22;27217;51.220;5.308;2022-10-22T03:54:01;14.00;99.90
41481;DHT22;27217;51.220;5.308;2022-10-22T03:56:27;13.90;99.90
41481;DHT22;27217;51.220;5.308;2022-10-22T03:58:56;14.00;99.90
41481;DHT22;27217;51.220;5.308;2022-10-22T04:01:23;14.10;99.90
41481;DHT22;27217;51.220;5.308;2022-10-22T04:03:49;14.10;99.90
41481;DHT22;27217;51.220;5.308;2022-10-22T04:06:15;14.00;99.90
41481;DHT22;27217;51.220;5.308;2022-10-22T04:08:42;13.90;99.90
41481;DHT22;27217;51.220;5.308;2022-10-22T04:11:09;13.90;99.90
41481;DHT22;27217;51.220;5.308;2022-10-22T04:13:35;14.00;99.90
41481;DHT22;27217;51.220;5.308;2022-10-22T04:16:15;14.10;99.90
41481;DHT22;27217;51.220;5.308;2022-10-22T04:18:46;14.10;99.90
41481;DHT22;27217;51.220;5.308;2022-10-22T04:21:14;13.90;99.90
41481;DHT22;27217;51.220;5.308;2022-10-22T04:23:47;13.90;99.90
41481;DHT22;27217;51.220;5.308;2022-10-22T04:26:18;14.10;99.90
41481;DHT22;27217;51.220;5.308;2022-10-22T04:28:45;14.10;99.90
41481;DHT22;27217;51.220;5.308;2022-10-22T04:31:13;13.90;99.90
41481;DHT22;27217;51.220;5.308;2022-10-22T04:33:41;13.80;99.90
41481;DHT22;27217;51.220;5.308;2022-10-22T04:36:09;13.70;99.90
41481;DHT22;27217;51.220;5.308;2022-10-22T04:38:36;13.90;99.90
41481;DHT22;27217;51.220;5.308;2022-10-22T04:41:17;13.80;99.90
41481;DHT22;27217;51.220;5.308;2022-10-22T04:43:44;13.70;99.90
41481;DHT22;27217;51.220;5.308;2022-10-22T04:46:13;13.70;99.90
41481;DHT22;27217;51.220;5.308;2022-10-22T04:48:41;13.80;99.90
41481;DHT22;27217;51.220;5.308;2022-10-22T04:51:08;13.80;99.90
41481;DHT22;27217;51.220;5.308;2022-10-22T04:53:35;13.80;99.90
41481;DHT22;27217;51.220;5.308;2022-10-22T04:56:12;13.80;99.90
41481;DHT22;27217;51.220;5.308;2022-10-22T04:58:38;13.80;99.90
41481;DHT22;27217;51.220;5.308;2022-10-22T05:01:12;14.00;99.90
41481;DHT22;27217;51.220;5.308;2022-10-22T05:03:38;13.80;99.90
41481;DHT22;27217;51.220;5.308;2022-10-22T05:06:05;14.00;99.90
41481;DHT22;27217;51.220;5.308;2022-10-22T05:08:31;14.10;99.90
41481;DHT22;27217;51.220;5.308;2022-10-22T05:10:57;14.20;99.90
41481;DHT22;27217;51.220;5.308;2022-10-22T05:13:23;14.10;99.90
41481;DHT22;27217;51.220;5.308;2022-10-22T05:15:49;14.30;99.90
41481;DHT22;27217;51.220;5.308;2022-10-22T05:18:15;14.20;99.90
41481;DHT22;27217;51.220;5.308;2022-10-22T05:20:41;14.00;99.90
41481;DHT22;27217;51.220;5.308;2022-10-22T05:23:07;14.10;99.90
41481;DHT22;27217;51.220;5.308;2022-10-22T05:25:39;14.00;99.90
41481;DHT22;27217;51.220;5.308;2022-10-22T05:28:05;13.90;99.90
41481;DHT22;27217;51.220;5.308;2022-10-22T05:30:31;13.90;99.90
41481;DHT22;27217;51.220;5.308;2022-10-22T05:32:57;14.00;99.90
41481;DHT22;27217;51.220;5.308;2022-10-22T05:35:23;13.90;99.90
41481;DHT22;27217;51.220;5.308;2022-10-22T05:37:49;13.80;99.90
41481;DHT22;27217;51.220;5.308;2022-10-22T05:40:15;13.80;99.90
41481;DHT22;27217;51.220;5.308;2022-10-22T05:42:41;13.60;99.90
41481;DHT22;27217;51.220;5.308;2022-10-22T05:45:06;13.70;99.90
41481;DHT22;27217;51.220;5.308;2022-10-22T05:47:33;13.60;99.90
41481;DHT22;27217;51.220;5.308;2022-10-22T05:50:01;13.50;99.90
41481;DHT22;27217;51.220;5.308;2022-10-22T05:52:27;13.50;99.90
41481;DHT22;27217;51.220;5.308;2022-10-22T05:54:53;13.70;99.90
41481;DHT22;27217;51.220;5.308;2022-10-22T05:57:19;13.80;99.90
41481;DHT22;27217;51.220;5.308;2022-10-22T05:59:45;14.10;99.90
41481;DHT22;27217;51.220;5.308;2022-10-22T06:02:11;13.90;99.90
41481;DHT22;27217;51.220;5.308;2022-10-22T06:04:37;13.70;99.90
41481;DHT22;27217;51.220;5.308;2022-10-22T06:07:03;13.80;99.90
41481;DHT22;27217;51.220;5.308;2022-10-22T06:09:35;13.80;99.90
41481;DHT22;27217;51.220;5.308;2022-10-22T06:12:01;14.00;99.90
41481;DHT22;27217;51.220;5.308;2022-10-22T06:14:27;14.40;99.90
41481;DHT22;27217;51.220;5.308;2022-10-22T06:16:54;14.40;99.90
41481;DHT22;27217;51.220;5.308;2022-10-22T06:19:22;14.40;99.90
41481;DHT22;27217;51.220;5.308;2022-10-22T06:21:50;14.20;99.90
41481;DHT22;27217;51.220;5.308;2022-10-22T06:24:17;14.20;99.90
41481;DHT22;27217;51.220;5.308;2022-10-22T06:26:43;14.30;99.90
41481;DHT22;27217;51.220;5.308;2022-10-22T06:29:09;14.30;99.90
41481;DHT22;27217;51.220;5.308;2022-10-22T06:31:35;14.40;99.90
41481;DHT22;27217;51.220;5.308;2022-10-22T06:34:03;14.60;99.90
41481;DHT22;27217;51.220;5.308;2022-10-22T06:36:30;14.50;99.90
41481;DHT22;27217;51.220;5.308;2022-10-22T06:38:56;14.70;99.90
41481;DHT22;27217;51.220;5.308;2022-10-22T06:41:22;14.60;99.90
41481;DHT22;27217;51.220;5.308;2022-10-22T06:43:50;14.50;99.90
41481;DHT22;27217;51.220;5.308;2022-10-22T06:46:19;14.50;99.90
41481;DHT22;27217;51.220;5.308;2022-10-22T06:49:05;14.50;99.90
41481;DHT22;27217;51.220;5.308;2022-10-22T06:51:35;14.60;99.90
41481;DHT22;27217;51.220;5.308;2022-10-22T06:54:01;14.70;99.90
41481;DHT22;27217;51.220;5.308;2022-10-22T06:56:27;15.00;99.90
41481;DHT22;27217;51.220;5.308;2022-10-22T06:58:55;15.00;99.90
41481;DHT22;27217;51.220;5.308;2022-10-22T07:01:24;15.00;99.90
41481;DHT22;27217;51.220;5.308;2022-10-22T07:03:51;14.90;99.90
41481;DHT22;27217;51.220;5.308;2022-10-22T07:06:18;14.90;99.90
41481;DHT22;27217;51.220;5.308;2022-10-22T07:08:44;15.10;99.90
41481;DHT22;27217;51.220;5.308;2022-10-22T07:11:18;15.20;99.90
41481;DHT22;27217;51.220;5.308;2022-10-22T07:13:45;15.30;99.90
41481;DHT22;27217;51.220;5.308;2022-10-22T07:16:12;15.30;99.90
41481;DHT22;27217;51.220;5.308;2022-10-22T07:18:39;15.30;99.90
41481;DHT22;27217;51.220;5.308;2022-10-22T07:21:08;15.30;99.90
41481;DHT22;27217;51.220;5.308;2022-10-22T07:23:34;15.00;99.90
41481;DHT22;27217;51.220;5.308;2022-10-22T07:26:00;15.20;99.90
41481;DHT22;27217;51.220;5.308;2022-10-22T07:28:27;15.20;99.90
41481;DHT22;27217;51.220;5.308;2022-10-22T07:30:53;14.90;99.90
41481;DHT22;27217;51.220;5.308;2022-10-22T07:33:19;15.10;99.90
41481;DHT22;27217;51.220;5.308;2022-10-22T07:35:45;15.20;99.90
41481;DHT22;27217;51.220;5.308;2022-10-22T07:38:14;15.20;99.90
41481;DHT22;27217;51.220;5.308;2022-10-22T07:40:43;15.30;99.90
41481;DHT22;27217;51.220;5.308;2022-10-22T07:43:09;15.60;99.90
41481;DHT22;27217;51.220;5.308;2022-10-22T07:45:35;15.50;99.90
41481;DHT22;27217;51.220;5.308;2022-10-22T07:48:01;15.10;99.90
41481;DHT22;27217;51.220;5.308;2022-10-22T07:50:26;15.30;99.90
41481;DHT22;27217;51.220;5.308;2022-10-22T07:52:52;15.40;99.90
41481;DHT22;27217;51.220;5.308;2022-10-22T07:55:20;15.50;99.90
41481;DHT22;27217;51.220;5.308;2022-10-22T07:57:46;15.60;99.90
41481;DHT22;27217;51.220;5.308;2022-10-22T08:00:12;15.60;99.90
41481;DHT22;27217;51.220;5.308;2022-10-22T08:02:39;15.70;99.90
41481;DHT22;27217;51.220;5.308;2022-10-22T08:05:06;15.60;99.90
41481;DHT22;27217;51.220;5.308;2022-10-22T08:07:32;16.00;99.90
41481;DHT22;27217;51.220;5.308;2022-10-22T08:09:58;15.80;99.90
41481;DHT22;27217;51.220;5.308;2022-10-22T08:12:24;15.70;99.90
41481;DHT22;27217;51.220;5.308;2022-10-22T08:14:50;15.70;99.90
41481;DHT22;27217;51.220;5.308;2022-10-22T08:17:16;15.90;99.90
41481;DHT22;27217;51.220;5.308;2022-10-22T08:19:42;15.70;99.90
41481;DHT22;27217;51.220;5.308;2022-10-22T08:22:08;15.60;99.90
41481;DHT22;27217;51.220;5.308;2022-10-22T08:24:34;15.80;99.90
41481;DHT22;27217;51.220;5.308;2022-10-22T08:26:59;15.90;99.90
41481;DHT22;27217;51.220;5.308;2022-10-22T08:29:26;15.80;99.90
41481;DHT22;27217;51.220;5.308;2022-10-22T08:31:54;15.70;99.90
41481;DHT22;27217;51.220;5.308;2022-10-22T08:34:20;16.10;99.90
41481;DHT22;27217;51.220;5.308;2022-10-22T08:36:47;16.30;99.90
41481;DHT22;27217;51.220;5.308;2022-10-22T08:39:15;16.40;99.90
41481;DHT22;27217;51.220;5.308;2022-10-22T08:41:58;16.90;99.90
41481;DHT22;27217;51.220;5.308;2022-10-22T08:50:04;16.70;99.90
41481;DHT22;27217;51.220;5.308;2022-10-22T08:52:31;16.80;99.90
41481;DHT22;27217;51.220;5.308;2022-10-22T08:55:01;16.90;99.90
41481;DHT22;27217;51.220;5.308;2022-10-22T09:00:14;16.70;99.90
41481;DHT22;27217;51.220;5.308;2022-10-22T09:02:55;16.60;99.90
41481;DHT22;27217;51.220;5.308;2022-10-22T09:05:47;16.70;99.90
41481;DHT22;27217;51.220;5.308;2022-10-22T09:08:19;17.10;99.90
41481;DHT22;27217;51.220;5.308;2022-10-22T09:10:54;17.10;99.90
41481;DHT22;27217;51.220;5.308;2022-10-22T09:13:22;17.00;99.90
41481;DHT22;27217;51.220;5.308;2022-10-22T09:15:58;17.10;99.90
41481;DHT22;27217;51.220;5.308;2022-10-22T09:21:28;16.80;99.90
41481;DHT22;27217;51.220;5.308;2022-10-22T09:24:03;16.90;99.90
41481;DHT22;27217;51.220;5.308;2022-10-22T09:26:33;17.10;99.90
41481;DHT22;27217;51.220;5.308;2022-10-22T09:29:01;17.10;99.90
41481;DHT22;27217;51.220;5.308;2022-10-22T09:31:30;17.00;99.90
41481;DHT22;27217;51.220;5.308;2022-10-22T09:33:56;17.50;99.90
41481;DHT22;27217;51.220;5.308;2022-10-22T09:36:27;17.30;99.90
41481;DHT22;27217;51.220;5.308;2022-10-22T09:38:53;17.00;99.90
41481;DHT22;27217;51.220;5.308;2022-10-22T09:41:23;17.00;99.90
41481;DHT22;27217;51.220;5.308;2022-10-22T09:43:50;17.10;99.90
41481;DHT22;27217;51.220;5.308;2022-10-22T09:46:19;17.10;99.90
41481;DHT22;27217;51.220;5.308;2022-10-22T09:49:03;17.10;99.90
41481;DHT22;27217;51.220;5.308;2022-10-22T09:51:50;17.10;99.90
41481;DHT22;27217;51.220;5.308;2022-10-22T09:54:22;17.30;99.90
41481;DHT22;27217;51.220;5.308;2022-10-22T09:56:59;17.40;99.90
41481;DHT22;27217;51.220;5.308;2022-10-22T09:59:37;17.50;99.90
41481;DHT22;27217;51.220;5.308;2022-10-22T10:02:13;17.40;99.90
41481;DHT22;27217;51.220;5.308;2022-10-22T10:04:43;17.70;99.90
41481;DHT22;27217;51.220;5.308;2022-10-22T10:07:22;17.60;99.90
41481;DHT22;27217;51.220;5.308;2022-10-22T10:09:51;18.00;99.90
41481;DHT22;27217;51.220;5.308;2022-10-22T10:17:48;18.10;99.90
41481;DHT22;27217;51.220;5.308;2022-10-22T10:23:33;18.10;99.90
41481;DHT22;27217;51.220;5.308;2022-10-22T10:36:43;18.00;99.90
41481;DHT22;27217;51.220;5.308;2022-10-22T10:39:24;17.80;99.90
41481;DHT22;27217;51.220;5.308;2022-10-22T10:41:57;17.60;99.90
41481;DHT22;27217;51.220;5.308;2022-10-22T10:50:29;18.00;99.90
41481;DHT22;27217;51.220;5.308;2022-10-22T10:53:13;18.40;99.90
41481;DHT22;27217;51.220;5.308;2022-10-22T11:07:24;18.60;99.90
41481;DHT22;27217;51.220;5.308;2022-10-22T11:09:59;19.30;99.90
41481;DHT22;27217;51.220;5.308;2022-10-22T11:12:30;19.30;99.90
41481;DHT22;27217;51.220;5.308;2022-10-22T11:17:50;19.00;99.90
41481;DHT22;27217;51.220;5.308;2022-10-22T11:20:18;18.60;99.90
41481;DHT22;27217;51.220;5.308;2022-10-22T11:23:04;18.60;99.90
41481;DHT22;27217;51.220;5.308;2022-10-22T11:25:40;18.80;99.90
41481;DHT22;27217;51.220;5.308;2022-10-22T11:30:59;18.60;99.90
41481;DHT22;27217;51.220;5.308;2022-10-22T11:33:32;19.00;99.90
41481;DHT22;27217;51.220;5.308;2022-10-22T11:35:58;18.50;99.90
41481;DHT22;27217;51.220;5.308;2022-10-22T11:38:26;18.80;99.90
41481;DHT22;27217;51.220;5.308;2022-10-22T11:41:23;19.90;99.90
41481;DHT22;27217;51.220;5.308;2022-10-22T11:43:57;20.50;99.90
41481;DHT22;27217;51.220;5.308;2022-10-22T11:46:37;19.90;99.90
41481;DHT22;27217;51.220;5.308;2022-10-22T11:49:17;19.90;99.90
41481;DHT22;27217;51.220;5.308;2022-10-22T11:51:44;19.90;99.90
41481;DHT22;27217;51.220;5.308;2022-10-22T11:54:36;21.80;99.90
41481;DHT22;27217;51.220;5.308;2022-10-22T12:02:29;24.10;99.90
41481;DHT22;27217;51.220;5.308;2022-10-22T12:05:18;25.60;99.90
41481;DHT22;27217;51.220;5.308;2022-10-22T12:08:16;26.10;99.40
41481;DHT22;27217;51.220;5.308;2022-10-22T12:11:05;24.60;99.90
41481;DHT22;27217;51.220;5.308;2022-10-22T12:16:55;23.30;99.90
41481;DHT22;27217;51.220;5.308;2022-10-22T12:21:52;21.40;99.90
41481;DHT22;27217;51.220;5.308;2022-10-22T12:24:22;20.80;99.90
41481;DHT22;27217;51.220;5.308;2022-10-22T12:26:48;20.90;99.90
41481;DHT22;27217;51.220;5.308;2022-10-22T12:29:18;21.50;99.90
41481;DHT22;27217;51.220;5.308;2022-10-22T12:31:45;22.30;99.90
41481;DHT22;27217;51.220;5.308;2022-10-22T12:34:16;22.30;99.90
41481;DHT22;27217;51.220;5.308;2022-10-22T12:36:43;23.00;99.90
41481;DHT22;27217;51.220;5.308;2022-10-22T12:39:16;23.80;99.90
41481;DHT22;27217;51.220;5.308;2022-10-22T12:41:48;22.90;99.90
41481;DHT22;27217;51.220;5.308;2022-10-22T12:44:17;23.10;99.90
41481;DHT22;27217;51.220;5.308;2022-10-22T12:46:44;24.00;99.90
41481;DHT22;27217;51.220;5.308;2022-10-22T12:49:17;24.30;99.90
41481;DHT22;27217;51.220;5.308;2022-10-22T12:51:44;26.10;99.50
41481;DHT22;27217;51.220;5.308;2022-10-22T12:54:26;24.70;99.90
41481;DHT22;27217;51.220;5.308;2022-10-22T12:56:54;24.70;99.90
41481;DHT22;27217;51.220;5.308;2022-10-22T12:59:36;24.70;99.90
41481;DHT22;27217;51.220;5.308;2022-10-22T13:02:23;25.00;99.90
41481;DHT22;27217;51.220;5.308;2022-10-22T13:07:38;26.30;97.90
41481;DHT22;27217;51.220;5.308;2022-10-22T13:10:29;26.20;97.60
41481;DHT22;27217;51.220;5.308;2022-10-22T13:12:57;26.20;97.00
41481;DHT22;27217;51.220;5.308;2022-10-22T13:20:27;25.50;98.90
41481;DHT22;27217;51.220;5.308;2022-10-22T13:22:58;24.20;99.90
41481;DHT22;27217;51.220;5.308;2022-10-22T13:25:44;24.70;99.90
41481;DHT22;27217;51.220;5.308;2022-10-22T13:28:21;27.00;97.50
41481;DHT22;27217;51.220;5.308;2022-10-22T13:31:08;27.40;94.80
41481;DHT22;27217;51.220;5.308;2022-10-22T13:33:40;26.60;95.30
41481;DHT22;27217;51.220;5.308;2022-10-22T13:36:13;26.80;96.50
41481;DHT22;27217;51.220;5.308;2022-10-22T13:38:39;27.40;94.30
41481;DHT22;27217;51.220;5.308;2022-10-22T13:41:22;27.40;94.50
41481;DHT22;27217;51.220;5.308;2022-10-22T13:43:48;27.80;93.30
41481;DHT22;27217;51.220;5.308;2022-10-22T13:46:14;27.80;93.70
41481;DHT22;27217;51.220;5.308;2022-10-22T13:48:40;28.10;92.50
41481;DHT22;27217;51.220;5.308;2022-10-22T13:51:16;28.40;91.50
41481;DHT22;27217;51.220;5.308;2022-10-22T13:53:44;27.00;92.50
41481;DHT22;27217;51.220;5.308;2022-10-22T13:56:15;26.30;93.90
41481;DHT22;27217;51.220;5.308;2022-10-22T13:58:43;25.80;94.80
41481;DHT22;27217;51.220;5.308;2022-10-22T14:01:21;25.80;95.90
41481;DHT22;27217;51.220;5.308;2022-10-22T14:03:49;26.00;95.80
41481;DHT22;27217;51.220;5.308;2022-10-22T14:06:16;26.60;95.10
41481;DHT22;27217;51.220;5.308;2022-10-22T14:08:45;27.10;93.70
41481;DHT22;27217;51.220;5.308;2022-10-22T14:11:11;27.80;93.30
41481;DHT22;27217;51.220;5.308;2022-10-22T14:13:38;26.60;94.00
41481;DHT22;27217;51.220;5.308;2022-10-22T14:16:06;27.20;93.70
41481;DHT22;27217;51.220;5.308;2022-10-22T14:18:38;29.20;90.70
41481;DHT22;27217;51.220;5.308;2022-10-22T14:21:06;28.80;90.90
41481;DHT22;27217;51.220;5.308;2022-10-22T14:23:33;29.10;90.20
41481;DHT22;27217;51.220;5.308;2022-10-22T14:25:59;29.30;90.10
41481;DHT22;27217;51.220;5.308;2022-10-22T14:28:26;30.00;87.00
41481;DHT22;27217;51.220;5.308;2022-10-22T14:30:52;29.20;88.50
41481;DHT22;27217;51.220;5.308;2022-10-22T14:33:27;29.50;87.70
41481;DHT22;27217;51.220;5.308;2022-10-22T14:36:00;29.20;87.20
41481;DHT22;27217;51.220;5.308;2022-10-22T14:38:26;29.50;86.60
41481;DHT22;27217;51.220;5.308;2022-10-22T14:40:52;28.90;86.80
41481;DHT22;27217;51.220;5.308;2022-10-22T14:43:21;28.10;89.80
41481;DHT22;27217;51.220;5.308;2022-10-22T14:45:48;28.40;90.00
41481;DHT22;27217;51.220;5.308;2022-10-22T14:48:14;28.20;90.10
41481;DHT22;27217;51.220;5.308;2022-10-22T14:50:43;29.00;89.50
41481;DHT22;27217;51.220;5.308;2022-10-22T14:53:10;28.70;86.70
41481;DHT22;27217;51.220;5.308;2022-10-22T14:55:37;27.20;90.10
41481;DHT22;27217;51.220;5.308;2022-10-22T14:58:02;25.80;93.10
41481;DHT22;27217;51.220;5.308;2022-10-22T15:00:29;24.00;98.10
41481;DHT22;27217;51.220;5.308;2022-10-22T15:02:55;24.20;99.60
41481;DHT22;27217;51.220;5.308;2022-10-22T15:05:23;24.50;97.90
41481;DHT22;27217;51.220;5.308;2022-10-22T15:07:49;24.40;98.60
41481;DHT22;27217;51.220;5.308;2022-10-22T15:10:15;24.10;99.20
41481;DHT22;27217;51.220;5.308;2022-10-22T15:12:41;23.30;99.90
41481;DHT22;27217;51.220;5.308;2022-10-22T15:15:07;23.00;99.90
41481;DHT22;27217;51.220;5.308;2022-10-22T15:17:33;22.70;99.90
41481;DHT22;27217;51.220;5.308;2022-10-22T15:19:59;22.70;99.90
41481;DHT22;27217;51.220;5.308;2022-10-22T15:22:29;22.70;99.90
41481;DHT22;27217;51.220;5.308;2022-10-22T15:24:56;23.60;99.90
41481;DHT22;27217;51.220;5.308;2022-10-22T15:27:23;24.30;99.90
41481;DHT22;27217;51.220;5.308;2022-10-22T15:29:49;25.10;99.60
41481;DHT22;27217;51.220;5.308;2022-10-22T15:32:15;25.20;98.80
41481;DHT22;27217;51.220;5.308;2022-10-22T15:34:41;25.10;99.20
41481;DHT22;27217;51.220;5.308;2022-10-22T15:37:10;24.60;99.90
41481;DHT22;27217;51.220;5.308;2022-10-22T15:39:40;24.10;99.90
41481;DHT22;27217;51.220;5.308;2022-10-22T15:42:08;23.60;99.90
41481;DHT22;27217;51.220;5.308;2022-10-22T15:44:35;23.30;99.90
41481;DHT22;27217;51.220;5.308;2022-10-22T15:47:02;22.90;99.90
41481;DHT22;27217;51.220;5.308;2022-10-22T15:49:29;22.60;99.90
41481;DHT22;27217;51.220;5.308;2022-10-22T15:51:55;22.60;99.90
41481;DHT22;27217;51.220;5.308;2022-10-22T15:54:24;22.40;99.90
41481;DHT22;27217;51.220;5.308;2022-10-22T15:56:50;22.00;99.90
41481;DHT22;27217;51.220;5.308;2022-10-22T15:59:17;22.00;99.90
41481;DHT22;27217;51.220;5.308;2022-10-22T16:01:43;21.80;99.90
41481;DHT22;27217;51.220;5.308;2022-10-22T16:04:10;21.40;99.90
41481;DHT22;27217;51.220;5.308;2022-10-22T16:06:47;21.40;99.90
41481;DHT22;27217;51.220;5.308;2022-10-22T16:09:16;21.10;99.90
41481;DHT22;27217;51.220;5.308;2022-10-22T16:11:46;20.80;99.90
41481;DHT22;27217;51.220;5.308;2022-10-22T16:14:13;20.40;99.90
41481;DHT22;27217;51.220;5.308;2022-10-22T16:16:45;20.40;99.90
41481;DHT22;27217;51.220;5.308;2022-10-22T16:19:13;20.20;99.90
41481;DHT22;27217;51.220;5.308;2022-10-22T16:21:39;20.10;99.90
41481;DHT22;27217;51.220;5.308;2022-10-22T16:24:06;19.90;99.90
41481;DHT22;27217;51.220;5.308;2022-10-22T16:26:32;19.70;99.90
41481;DHT22;27217;51.220;5.308;2022-10-22T16:28:58;19.60;99.90
41481;DHT22;27217;51.220;5.308;2022-10-22T16:31:24;19.40;99.90
41481;DHT22;27217;51.220;5.308;2022-10-22T16:33:49;19.20;99.90
41481;DHT22;27217;51.220;5.308;2022-10-22T16:36:17;19.20;99.90
41481;DHT22;27217;51.220;5.308;2022-10-22T16:38:44;19.20;99.90
41481;DHT22;27217;51.220;5.308;2022-10-22T16:41:11;19.00;99.90
41481;DHT22;27217;51.220;5.308;2022-10-22T16:43:39;18.90;99.90
41481;DHT22;27217;51.220;5.308;2022-10-22T16:46:06;18.60;99.90
41481;DHT22;27217;51.220;5.308;2022-10-22T16:48:33;18.50;99.90
41481;DHT22;27217;51.220;5.308;2022-10-22T16:51:04;18.30;99.90
41481;DHT22;27217;51.220;5.308;2022-10-22T16:53:31;18.30;99.90
41481;DHT22;27217;51.220;5.308;2022-10-22T16:55:56;18.30;99.90
41481;DHT22;27217;51.220;5.308;2022-10-22T16:58:22;18.20;99.90
41481;DHT22;27217;51.220;5.308;2022-10-22T17:00:48;18.00;99.90
41481;DHT22;27217;51.220;5.308;2022-10-22T17:03:14;17.70;99.90
41481;DHT22;27217;51.220;5.308;2022-10-22T17:05:39;17.70;99.90
41481;DHT22;27217;51.220;5.308;2022-10-22T17:08:06;17.50;99.90
41481;DHT22;27217;51.220;5.308;2022-10-22T17:10:31;17.50;99.90
41481;DHT22;27217;51.220;5.308;2022-10-22T17:12:59;17.40;99.90
41481;DHT22;27217;51.220;5.308;2022-10-22T17:15:25;17.30;99.90